Wyndham, Western Australia

6:56 AM AWST on September 21, 2014 (GMT +0800)
Kununurra | Change Station
CLOSE
Current Station
Airport
Location: Kununurra,
Elevation: 144 ft
Nearby Weather Stations

Elev 144 ft 15.78 °S, 128.71 °E | Updated 26 minutes ago

Clear
Clear
72 °F
Feels Like 72 °F
N
5
Wind Variable Wind from SW

Today
High -- | Low -- °F
--% Chance of Precip.
Yesterday
High -- | Low -- °F
Precip. -- in
5:18 AM 5:23 PM
Waning Crescent, 10% visible
Pressure 29.98 in
Visibility 6.2 miles
Clouds
Dew Point 61 °F
Humidity 69%
Rainfall 0.00 in
Snow Depth Not available.
UV Not available.
Pollen Not available.
Air Quality Not available.
Flu Activity Not available.
METAR YPKU 202230Z AUTO 22004KT 9999 // NCD 22/16 Q1015

More Conditions Fewer Conditions

Pressure 29.98 in
Visibility 6.2 miles
Clouds
Dew Point 61 °F
Humidity 69%
Rainfall 0.00 in
Snow Depth Not available.
UV Not available.
Pollen Not available.
Air Quality Not available.
Flu Activity Not available.
METAR YPKU 202230Z AUTO 22004KT 9999 // NCD 22/16 Q1015

More Conditions Fewer Conditions

10-Day Weather Forecast

Almanac

Astronomy

Sep. 21, 2014 Rise Set
Actual Time 5:18 AM AWST 5:23 PM AWST
Civil Twilight 4:56 AM AWST 5:44 PM AWST
Nautical Twilight 4:31 AM AWST 6:09 PM AWST
Astronomical Twilight 4:06 AM AWST 6:34 PM AWST
Moon 3:03 AM AWST (9/21) 3:02 PM AWST (9/21)
Length of Visible Light 12h 47m
Length of Day
12h 05m
Tomorrow will be 0m 52s longer.
Waning Crescent, 10% of the Moon is Illuminated
Sep 20
Waning Crescent
Sep 24
New
Oct 1
First Quarter
Oct 8
Full
Oct 15
Last Quarter

Yesterday's Extremes

Country Highs Country Lows

Community

WunderPhotos

Upload Photos

1,754,970 photos uploaded!

WunderBlogs® & News

Nearby

Snow Depth

Not available.

Earthquake Activity

City Distance Mag. Time & Date
No recent earthquake activity has been reported nearby.
Minimum magnitude displayed is 2.5.

Coastal Water Temperatures

Place Temperature
No Stations Reporting

Nearby Weather Stations